createdAt,value
2023-08-14T00:03:42.286Z,5.20
2023-08-14T00:08:45.442Z,4.80
2023-08-14T00:13:52.647Z,5.40
2023-08-14T00:18:55.885Z,4.70
2023-08-14T00:23:58.967Z,4.50
2023-08-14T00:29:02.093Z,4.80
2023-08-14T00:34:05.391Z,4.80
2023-08-14T00:39:08.710Z,4.90
2023-08-14T00:44:11.809Z,4.50
2023-08-14T00:49:15.020Z,4.70
2023-08-14T00:54:18.229Z,5.10
2023-08-14T00:59:21.662Z,5.00
2023-08-14T01:04:25.082Z,4.90
2023-08-14T01:09:28.418Z,5.10
2023-08-14T01:14:34.084Z,4.90
2023-08-14T01:19:43.094Z,5.70
2023-08-14T01:25:01.361Z,5.90
2023-08-14T01:30:04.903Z,5.50
2023-08-14T01:35:08.815Z,4.90
2023-08-14T01:40:24.973Z,5.10
2023-08-14T01:45:31.207Z,4.70
2023-08-14T01:50:34.819Z,4.60
2023-08-14T01:55:37.838Z,5.10
2023-08-14T02:00:41.164Z,5.00
2023-08-14T02:05:44.269Z,4.60
2023-08-14T02:10:47.976Z,4.40
2023-08-14T02:15:51.016Z,4.50
2023-08-14T02:20:54.918Z,4.90
2023-08-14T02:25:58.034Z,5.10
2023-08-14T02:31:03.432Z,5.40
2023-08-14T02:36:06.916Z,5.80
2023-08-14T02:41:10.122Z,6.60
2023-08-14T02:46:13.678Z,6.30
2023-08-14T02:51:18.163Z,4.50
2023-08-14T02:56:21.119Z,5.40
2023-08-14T03:01:24.100Z,4.70
2023-08-14T03:06:31.084Z,5.30
2023-08-14T03:11:34.094Z,4.90
2023-08-14T03:16:37.113Z,5.80
2023-08-14T03:21:42.171Z,5.60
2023-08-14T03:26:45.538Z,6.40
2023-08-14T03:31:49.403Z,6.20
2023-08-14T03:36:52.512Z,6.20
2023-08-14T03:41:55.617Z,5.80
2023-08-14T03:46:58.729Z,6.10
2023-08-14T03:52:01.634Z,5.10
2023-08-14T03:57:04.750Z,5.60
2023-08-14T04:02:07.773Z,6.90
2023-08-14T04:07:10.966Z,6.70
2023-08-14T04:12:14.130Z,4.90
2023-08-14T04:17:17.388Z,4.50
2023-08-14T04:22:20.624Z,4.30
2023-08-14T04:27:24.219Z,4.40
2023-08-14T04:32:27.439Z,4.60
2023-08-14T04:37:30.536Z,3.70
2023-08-14T04:42:34.977Z,4.10
2023-08-14T04:47:38.269Z,4.30
2023-08-14T04:52:41.400Z,3.80
2023-08-14T04:57:44.509Z,3.50
2023-08-14T05:02:47.827Z,3.70
2023-08-14T05:07:51.033Z,3.00
2023-08-14T05:12:54.143Z,3.00
2023-08-14T05:17:57.170Z,2.80
2023-08-14T05:23:00.260Z,3.00
2023-08-14T05:28:04.395Z,2.40
2023-08-14T05:33:07.752Z,2.20
2023-08-14T05:38:10.819Z,2.20
2023-08-14T05:43:14.127Z,2.50
2023-08-14T05:48:17.242Z,2.50
2023-08-14T05:53:20.290Z,2.40
2023-08-14T05:58:23.285Z,1.90
2023-08-14T06:03:42.084Z,2.00
2023-08-14T06:08:47.184Z,2.10
2023-08-14T06:13:50.402Z,2.20
2023-08-14T06:18:54.516Z,1.80
2023-08-14T06:23:58.046Z,2.10
2023-08-14T06:29:01.069Z,2.20
2023-08-14T06:34:04.301Z,2.20
2023-08-14T06:39:08.614Z,2.00
2023-08-14T06:44:12.421Z,2.30
2023-08-14T06:49:15.648Z,2.10
2023-08-14T06:54:18.999Z,2.10
2023-08-14T06:59:22.171Z,2.20
2023-08-14T07:04:25.389Z,2.10
2023-08-14T07:09:28.716Z,2.20
2023-08-14T07:14:32.734Z,1.80
2023-08-14T07:19:37.368Z,2.00
2023-08-14T07:24:40.897Z,2.20
2023-08-14T07:29:44.910Z,2.30
2023-08-14T07:34:49.886Z,2.50
2023-08-14T07:39:53.116Z,2.10
2023-08-14T07:44:56.187Z,2.00
2023-08-14T07:49:59.409Z,2.20
2023-08-14T07:55:06.417Z,2.10
2023-08-14T08:00:10.675Z,2.70
2023-08-14T08:05:14.378Z,2.40
2023-08-14T08:10:17.363Z,2.50
2023-08-14T08:15:20.571Z,2.20
2023-08-14T08:20:23.988Z,2.30
2023-08-14T08:25:27.121Z,2.60
2023-08-14T08:30:30.215Z,2.50
2023-08-14T08:35:33.430Z,2.70
2023-08-14T08:40:37.515Z,2.60
2023-08-14T08:45:47.192Z,2.50
2023-08-14T08:50:51.831Z,2.70
2023-08-14T08:55:55.893Z,2.90
2023-08-14T09:01:00.914Z,2.70
2023-08-14T09:06:06.133Z,3.00
2023-08-14T09:11:10.247Z,2.80
2023-08-14T09:16:28.910Z,3.20
2023-08-14T09:21:33.060Z,3.50
2023-08-14T09:26:44.271Z,2.80
2023-08-14T09:31:53.368Z,2.90
2023-08-14T09:36:59.853Z,3.10
2023-08-14T09:42:05.861Z,3.00
2023-08-14T09:47:09.685Z,2.80
2023-08-14T09:52:13.214Z,2.80
2023-08-14T09:57:18.081Z,3.10
2023-08-14T10:02:24.090Z,3.20
2023-08-14T10:07:28.694Z,2.90
2023-08-14T10:12:38.136Z,3.20
2023-08-14T10:18:00.516Z,2.90
2023-08-14T10:23:03.919Z,2.70
2023-08-14T10:28:08.876Z,3.40
2023-08-14T10:33:13.875Z,2.70
2023-08-14T10:38:25.215Z,3.00
2023-08-14T10:43:30.642Z,3.20
2023-08-14T10:48:38.512Z,2.70
2023-08-14T10:53:42.446Z,3.00
2023-08-14T10:58:49.034Z,3.00
2023-08-14T11:03:59.840Z,2.90
2023-08-14T11:09:05.846Z,2.80
2023-08-14T11:14:10.852Z,3.00
2023-08-14T11:19:20.318Z,2.70
2023-08-14T11:24:25.767Z,3.00
2023-08-14T11:29:32.840Z,2.80
2023-08-14T11:34:40.107Z,3.10
2023-08-14T11:39:52.602Z,3.10
2023-08-14T11:45:05.548Z,3.40
2023-08-14T11:50:11.212Z,2.70
2023-08-14T11:55:17.823Z,2.80
2023-08-14T12:00:30.189Z,2.90
2023-08-14T12:05:37.138Z,2.30
2023-08-14T12:10:41.459Z,2.80
2023-08-14T12:15:44.659Z,2.90
2023-08-14T12:20:55.679Z,2.90
2023-08-14T12:25:58.782Z,2.60
2023-08-14T12:31:01.908Z,2.70
2023-08-14T12:36:05.449Z,2.90
2023-08-14T12:41:08.617Z,2.60
2023-08-14T12:46:12.616Z,2.90
2023-08-14T12:51:15.668Z,2.80
2023-08-14T12:56:19.284Z,2.80
2023-08-14T13:01:24.040Z,3.30
2023-08-14T13:06:29.207Z,3.10
2023-08-14T13:11:32.392Z,3.00
2023-08-14T13:16:35.834Z,3.00
2023-08-14T13:21:38.937Z,2.70
2023-08-14T13:26:42.234Z,3.10
2023-08-14T13:31:45.747Z,3.00
2023-08-14T13:36:48.760Z,2.90
2023-08-14T13:41:51.774Z,3.20
2023-08-14T13:46:54.985Z,3.40
2023-08-14T13:51:57.981Z,3.80
2023-08-14T13:57:01.090Z,3.60
2023-08-14T14:02:04.413Z,3.70
2023-08-14T14:07:07.720Z,3.40
2023-08-14T14:12:10.865Z,3.70
2023-08-14T14:17:15.162Z,3.80
2023-08-14T14:22:18.283Z,3.70
2023-08-14T14:27:21.533Z,4.10
2023-08-14T14:32:24.783Z,4.00
2023-08-14T14:37:27.917Z,3.80
2023-08-14T14:42:30.918Z,4.80
2023-08-14T14:47:33.984Z,5.50
2023-08-14T14:52:37.143Z,5.00
2023-08-14T14:57:40.259Z,4.40
2023-08-14T15:02:43.550Z,3.50
2023-08-14T15:07:47.921Z,4.20
2023-08-14T15:12:50.917Z,4.30
2023-08-14T15:17:54.346Z,3.90
2023-08-14T15:22:57.977Z,4.10
2023-08-14T15:28:01.369Z,4.00
2023-08-14T15:33:04.599Z,8.60
2023-08-14T15:38:08.004Z,4.30
2023-08-14T15:43:11.408Z,4.50
2023-08-14T15:48:14.622Z,4.30
2023-08-14T15:53:17.933Z,4.30
2023-08-14T15:58:21.180Z,4.30
2023-08-14T16:03:25.910Z,4.30
2023-08-14T16:08:32.270Z,4.50
2023-08-14T16:13:35.703Z,5.10
2023-08-14T16:18:40.070Z,4.20
2023-08-14T16:23:43.656Z,4.40
2023-08-14T16:28:47.065Z,5.00
2023-08-14T16:33:51.405Z,4.50
2023-08-14T16:38:55.332Z,4.80
2023-08-14T16:43:58.649Z,5.00
2023-08-14T16:49:02.876Z,4.90
2023-08-14T16:54:08.650Z,5.40
2023-08-14T16:59:12.584Z,4.80
2023-08-14T17:04:15.813Z,5.10
2023-08-14T17:09:19.331Z,5.10
2023-08-14T17:14:22.556Z,5.70
2023-08-14T17:19:26.861Z,5.20
2023-08-14T17:24:30.080Z,5.30
2023-08-14T17:29:36.049Z,5.50
2023-08-14T17:34:39.266Z,5.20
2023-08-14T17:39:42.576Z,5.60
2023-08-14T17:44:45.798Z,6.10
2023-08-14T17:49:48.896Z,6.20
2023-08-14T17:54:51.909Z,6.40
2023-08-14T17:59:55.022Z,6.80
2023-08-14T18:04:58.125Z,6.60
2023-08-14T18:10:01.223Z,7.00
2023-08-14T18:15:05.027Z,6.30
2023-08-14T18:20:09.554Z,7.30
2023-08-14T18:25:12.605Z,6.40
2023-08-14T18:30:15.817Z,6.80
2023-08-14T18:35:18.932Z,7.00
2023-08-14T18:40:22.061Z,7.20
2023-08-14T18:45:28.230Z,7.00
2023-08-14T18:50:31.542Z,6.70
2023-08-14T18:55:41.301Z,7.60
2023-08-14T19:00:44.508Z,7.50
2023-08-14T19:05:56.053Z,7.60
2023-08-14T19:10:59.443Z,7.60
2023-08-14T19:16:02.567Z,8.00
2023-08-14T19:21:05.953Z,7.80
2023-08-14T19:26:22.432Z,8.10
2023-08-14T19:31:30.141Z,8.20
2023-08-14T19:36:34.949Z,8.00
2023-08-14T19:41:37.958Z,7.60
2023-08-14T19:46:41.546Z,8.30
2023-08-14T19:51:44.787Z,8.50
2023-08-14T19:56:47.892Z,7.90
2023-08-14T20:01:51.107Z,8.60
2023-08-14T20:06:54.420Z,8.00
2023-08-14T20:11:58.157Z,8.40
2023-08-14T20:17:01.788Z,8.60
2023-08-14T20:22:05.182Z,8.60
2023-08-14T20:27:09.126Z,8.30
2023-08-14T20:32:12.224Z,8.20
2023-08-14T20:37:15.365Z,8.50
2023-08-14T20:42:18.543Z,9.10
2023-08-14T20:47:21.822Z,8.60
2023-08-14T20:52:25.578Z,8.60
2023-08-14T20:57:28.710Z,8.40
2023-08-14T21:02:31.966Z,8.60
2023-08-14T21:07:35.213Z,8.30
2023-08-14T21:12:38.530Z,8.50
2023-08-14T21:17:41.754Z,7.80
2023-08-14T21:22:46.329Z,8.90
2023-08-14T21:27:50.527Z,8.70
2023-08-14T21:32:53.978Z,9.30
2023-08-14T21:37:57.159Z,9.00
2023-08-14T21:43:01.388Z,9.60
2023-08-14T21:48:04.833Z,10.40
2023-08-14T21:53:08.314Z,9.10
2023-08-14T21:58:11.731Z,9.60
2023-08-14T22:03:14.934Z,10.40
2023-08-14T22:08:18.188Z,9.50
2023-08-14T22:13:21.250Z,9.40
2023-08-14T22:18:25.087Z,10.20
2023-08-14T22:23:31.803Z,10.30
2023-08-14T22:28:34.880Z,10.50
2023-08-14T22:33:37.885Z,10.10
2023-08-14T22:38:40.997Z,9.20
2023-08-14T22:43:44.101Z,10.60
2023-08-14T22:48:47.213Z,11.60
2023-08-14T22:53:50.165Z,11.30
2023-08-14T22:58:53.232Z,10.80
2023-08-14T23:03:56.255Z,14.10
2023-08-14T23:08:59.447Z,12.40
2023-08-14T23:14:02.561Z,12.30
2023-08-14T23:19:06.410Z,12.30
2023-08-14T23:24:09.500Z,12.10
2023-08-14T23:29:12.495Z,12.00
2023-08-14T23:34:15.513Z,12.30
2023-08-14T23:39:21.103Z,11.90
2023-08-14T23:44:24.186Z,13.60
2023-08-14T23:49:27.296Z,12.80
2023-08-14T23:54:32.037Z,12.20
2023-08-14T23:59:35.152Z,12.80
